sensor_id;sensor_type;location;lat;lon;timestamp;P1;durP1;ratioP1;P2;durP2;ratioP2
21301;SDS011;10810;48.270;9.996;2022-08-19T00:01:59;11.60;;;5.25;;
21301;SDS011;10810;48.270;9.996;2022-08-19T00:04:28;9.95;;;5.35;;
21301;SDS011;10810;48.270;9.996;2022-08-19T00:06:58;11.32;;;5.57;;
21301;SDS011;10810;48.270;9.996;2022-08-19T00:09:26;9.20;;;5.20;;
21301;SDS011;10810;48.270;9.996;2022-08-19T00:11:54;10.10;;;5.25;;
21301;SDS011;10810;48.270;9.996;2022-08-19T00:14:30;13.88;;;6.07;;
21301;SDS011;10810;48.270;9.996;2022-08-19T00:16:59;11.02;;;5.82;;
21301;SDS011;10810;48.270;9.996;2022-08-19T00:19:27;12.50;;;5.72;;
21301;SDS011;10810;48.270;9.996;2022-08-19T00:21:55;10.25;;;5.85;;
21301;SDS011;10810;48.270;9.996;2022-08-19T00:24:28;9.98;;;6.13;;
21301;SDS011;10810;48.270;9.996;2022-08-19T00:26:57;12.10;;;6.47;;
21301;SDS011;10810;48.270;9.996;2022-08-19T00:29:28;11.40;;;5.90;;
21301;SDS011;10810;48.270;9.996;2022-08-19T00:31:58;13.15;;;6.10;;
21301;SDS011;10810;48.270;9.996;2022-08-19T00:34:29;10.65;;;5.68;;
21301;SDS011;10810;48.270;9.996;2022-08-19T00:37:00;11.25;;;6.22;;
21301;SDS011;10810;48.270;9.996;2022-08-19T00:39:27;11.15;;;5.97;;
21301;SDS011;10810;48.270;9.996;2022-08-19T00:41:55;12.15;;;6.22;;
21301;SDS011;10810;48.270;9.996;2022-08-19T00:44:24;11.32;;;6.18;;
21301;SDS011;10810;48.270;9.996;2022-08-19T00:49:41;11.25;;;6.35;;
21301;SDS011;10810;48.270;9.996;2022-08-19T00:52:16;14.73;;;6.45;;
21301;SDS011;10810;48.270;9.996;2022-08-19T00:54:48;12.52;;;6.72;;
21301;SDS011;10810;48.270;9.996;2022-08-19T00:57:20;13.45;;;6.50;;
21301;SDS011;10810;48.270;9.996;2022-08-19T00:59:59;12.52;;;6.40;;
21301;SDS011;10810;48.270;9.996;2022-08-19T01:05:21;11.98;;;6.43;;
21301;SDS011;10810;48.270;9.996;2022-08-19T01:07:54;14.48;;;6.82;;
21301;SDS011;10810;48.270;9.996;2022-08-19T01:10:27;13.95;;;6.90;;
21301;SDS011;10810;48.270;9.996;2022-08-19T01:13:00;12.63;;;6.55;;
21301;SDS011;10810;48.270;9.996;2022-08-19T01:15:34;11.98;;;6.43;;
21301;SDS011;10810;48.270;9.996;2022-08-19T01:18:13;13.07;;;6.60;;
21301;SDS011;10810;48.270;9.996;2022-08-19T01:20:44;12.52;;;6.63;;
21301;SDS011;10810;48.270;9.996;2022-08-19T01:23:13;13.32;;;7.18;;
21301;SDS011;10810;48.270;9.996;2022-08-19T01:25:41;12.85;;;6.43;;
21301;SDS011;10810;48.270;9.996;2022-08-19T01:28:17;11.98;;;6.85;;
21301;SDS011;10810;48.270;9.996;2022-08-19T01:30:48;13.43;;;7.25;;
21301;SDS011;10810;48.270;9.996;2022-08-19T01:33:17;12.68;;;6.80;;
21301;SDS011;10810;48.270;9.996;2022-08-19T01:35:47;12.32;;;5.97;;
21301;SDS011;10810;48.270;9.996;2022-08-19T01:38:23;12.48;;;6.07;;
21301;SDS011;10810;48.270;9.996;2022-08-19T01:41:03;13.18;;;6.45;;
21301;SDS011;10810;48.270;9.996;2022-08-19T01:43:33;13.10;;;6.80;;
21301;SDS011;10810;48.270;9.996;2022-08-19T01:46:11;11.63;;;6.80;;
21301;SDS011;10810;48.270;9.996;2022-08-19T01:48:40;12.25;;;6.70;;
21301;SDS011;10810;48.270;9.996;2022-08-19T01:51:10;12.18;;;6.95;;
21301;SDS011;10810;48.270;9.996;2022-08-19T01:53:41;14.77;;;7.20;;
21301;SDS011;10810;48.270;9.996;2022-08-19T01:56:13;16.55;;;7.32;;
21301;SDS011;10810;48.270;9.996;2022-08-19T01:58:43;14.35;;;7.43;;
21301;SDS011;10810;48.270;9.996;2022-08-19T02:01:14;12.23;;;7.13;;
21301;SDS011;10810;48.270;9.996;2022-08-19T02:03:42;13.27;;;7.13;;
21301;SDS011;10810;48.270;9.996;2022-08-19T02:06:12;13.27;;;7.13;;
21301;SDS011;10810;48.270;9.996;2022-08-19T02:08:43;14.10;;;6.95;;
21301;SDS011;10810;48.270;9.996;2022-08-19T02:11:21;15.48;;;7.10;;
21301;SDS011;10810;48.270;9.996;2022-08-19T02:14:00;14.88;;;6.95;;
21301;SDS011;10810;48.270;9.996;2022-08-19T02:16:28;15.75;;;7.32;;
21301;SDS011;10810;48.270;9.996;2022-08-19T02:18:59;13.70;;;7.22;;
21301;SDS011;10810;48.270;9.996;2022-08-19T02:21:27;14.70;;;7.10;;
21301;SDS011;10810;48.270;9.996;2022-08-19T02:23:56;12.40;;;6.93;;
21301;SDS011;10810;48.270;9.996;2022-08-19T02:26:28;13.55;;;7.15;;
21301;SDS011;10810;48.270;9.996;2022-08-19T02:28:55;16.38;;;7.55;;
21301;SDS011;10810;48.270;9.996;2022-08-19T02:31:28;14.75;;;7.32;;
21301;SDS011;10810;48.270;9.996;2022-08-19T02:33:57;15.05;;;7.75;;
21301;SDS011;10810;48.270;9.996;2022-08-19T02:36:26;15.57;;;7.47;;
21301;SDS011;10810;48.270;9.996;2022-08-19T02:38:56;16.30;;;8.32;;
21301;SDS011;10810;48.270;9.996;2022-08-19T02:41:29;13.95;;;7.28;;
21301;SDS011;10810;48.270;9.996;2022-08-19T02:43:59;14.93;;;7.68;;
21301;SDS011;10810;48.270;9.996;2022-08-19T02:46:34;18.70;;;7.90;;
21301;SDS011;10810;48.270;9.996;2022-08-19T02:49:25;17.02;;;8.18;;
21301;SDS011;10810;48.270;9.996;2022-08-19T02:52:01;16.15;;;7.88;;
21301;SDS011;10810;48.270;9.996;2022-08-19T02:54:36;21.92;;;8.68;;
21301;SDS011;10810;48.270;9.996;2022-08-19T02:57:03;16.55;;;8.15;;
21301;SDS011;10810;48.270;9.996;2022-08-19T02:59:48;18.05;;;8.60;;
21301;SDS011;10810;48.270;9.996;2022-08-19T03:02:18;16.50;;;8.18;;
21301;SDS011;10810;48.270;9.996;2022-08-19T03:04:46;16.55;;;7.82;;
21301;SDS011;10810;48.270;9.996;2022-08-19T03:07:21;17.63;;;8.75;;
21301;SDS011;10810;48.270;9.996;2022-08-19T03:09:49;18.92;;;8.65;;
21301;SDS011;10810;48.270;9.996;2022-08-19T03:12:17;18.20;;;8.73;;
21301;SDS011;10810;48.270;9.996;2022-08-19T03:14:45;17.42;;;8.27;;
21301;SDS011;10810;48.270;9.996;2022-08-19T03:17:14;18.17;;;8.73;;
21301;SDS011;10810;48.270;9.996;2022-08-19T03:19:43;17.88;;;8.93;;
21301;SDS011;10810;48.270;9.996;2022-08-19T03:22:10;17.98;;;8.27;;
21301;SDS011;10810;48.270;9.996;2022-08-19T03:24:39;15.90;;;8.30;;
21301;SDS011;10810;48.270;9.996;2022-08-19T03:27:10;18.35;;;8.60;;
21301;SDS011;10810;48.270;9.996;2022-08-19T03:29:42;18.30;;;8.35;;
21301;SDS011;10810;48.270;9.996;2022-08-19T03:32:17;18.05;;;8.07;;
21301;SDS011;10810;48.270;9.996;2022-08-19T03:34:53;17.45;;;8.48;;
21301;SDS011;10810;48.270;9.996;2022-08-19T03:37:21;17.95;;;8.40;;
21301;SDS011;10810;48.270;9.996;2022-08-19T03:39:51;18.10;;;8.18;;
21301;SDS011;10810;48.270;9.996;2022-08-19T03:42:19;17.70;;;8.50;;
21301;SDS011;10810;48.270;9.996;2022-08-19T03:44:47;18.48;;;8.43;;
21301;SDS011;10810;48.270;9.996;2022-08-19T03:47:15;18.38;;;8.82;;
21301;SDS011;10810;48.270;9.996;2022-08-19T03:49:48;17.25;;;8.25;;
21301;SDS011;10810;48.270;9.996;2022-08-19T03:52:16;17.83;;;8.55;;
21301;SDS011;10810;48.270;9.996;2022-08-19T03:54:44;19.15;;;9.00;;
21301;SDS011;10810;48.270;9.996;2022-08-19T03:57:13;19.27;;;8.65;;
21301;SDS011;10810;48.270;9.996;2022-08-19T03:59:43;18.80;;;8.57;;
21301;SDS011;10810;48.270;9.996;2022-08-19T04:02:13;20.30;;;8.82;;
21301;SDS011;10810;48.270;9.996;2022-08-19T04:04:41;17.65;;;8.25;;
21301;SDS011;10810;48.270;9.996;2022-08-19T04:07:13;16.40;;;8.07;;
21301;SDS011;10810;48.270;9.996;2022-08-19T04:09:46;17.15;;;8.65;;
21301;SDS011;10810;48.270;9.996;2022-08-19T04:12:14;18.23;;;8.77;;
21301;SDS011;10810;48.270;9.996;2022-08-19T04:14:41;17.65;;;8.55;;
21301;SDS011;10810;48.270;9.996;2022-08-19T04:17:12;17.30;;;8.18;;
21301;SDS011;10810;48.270;9.996;2022-08-19T04:19:40;16.58;;;7.90;;
21301;SDS011;10810;48.270;9.996;2022-08-19T04:22:08;18.50;;;8.30;;
21301;SDS011;10810;48.270;9.996;2022-08-19T04:24:36;17.60;;;8.40;;
21301;SDS011;10810;48.270;9.996;2022-08-19T04:27:04;18.25;;;8.50;;
21301;SDS011;10810;48.270;9.996;2022-08-19T04:29:34;18.80;;;8.43;;
21301;SDS011;10810;48.270;9.996;2022-08-19T04:32:14;18.20;;;8.15;;
21301;SDS011;10810;48.270;9.996;2022-08-19T04:34:45;18.55;;;8.82;;
21301;SDS011;10810;48.270;9.996;2022-08-19T04:37:20;17.63;;;8.38;;
21301;SDS011;10810;48.270;9.996;2022-08-19T04:39:48;17.73;;;8.48;;
21301;SDS011;10810;48.270;9.996;2022-08-19T04:42:35;17.52;;;7.82;;
21301;SDS011;10810;48.270;9.996;2022-08-19T04:45:05;20.67;;;8.18;;
21301;SDS011;10810;48.270;9.996;2022-08-19T04:47:36;18.17;;;8.35;;
21301;SDS011;10810;48.270;9.996;2022-08-19T04:50:06;17.08;;;8.25;;
21301;SDS011;10810;48.270;9.996;2022-08-19T04:52:38;18.45;;;8.50;;
21301;SDS011;10810;48.270;9.996;2022-08-19T04:55:08;19.17;;;8.80;;
21301;SDS011;10810;48.270;9.996;2022-08-19T04:57:35;18.65;;;8.65;;
21301;SDS011;10810;48.270;9.996;2022-08-19T05:00:06;19.77;;;9.18;;
21301;SDS011;10810;48.270;9.996;2022-08-19T05:02:38;19.50;;;9.00;;
21301;SDS011;10810;48.270;9.996;2022-08-19T05:05:05;21.13;;;9.10;;
21301;SDS011;10810;48.270;9.996;2022-08-19T05:07:33;20.50;;;8.32;;
21301;SDS011;10810;48.270;9.996;2022-08-19T05:10:00;21.15;;;9.20;;
21301;SDS011;10810;48.270;9.996;2022-08-19T05:12:28;20.20;;;8.88;;
21301;SDS011;10810;48.270;9.996;2022-08-19T05:15:02;17.58;;;8.43;;
21301;SDS011;10810;48.270;9.996;2022-08-19T05:17:32;19.27;;;8.80;;
21301;SDS011;10810;48.270;9.996;2022-08-19T05:20:14;20.17;;;9.15;;
21301;SDS011;10810;48.270;9.996;2022-08-19T05:23:04;20.60;;;8.65;;
21301;SDS011;10810;48.270;9.996;2022-08-19T05:25:38;18.52;;;8.75;;
21301;SDS011;10810;48.270;9.996;2022-08-19T05:28:08;18.85;;;8.38;;
21301;SDS011;10810;48.270;9.996;2022-08-19T05:30:41;18.83;;;8.55;;
21301;SDS011;10810;48.270;9.996;2022-08-19T05:33:10;17.02;;;8.38;;
21301;SDS011;10810;48.270;9.996;2022-08-19T05:35:39;17.23;;;7.53;;
21301;SDS011;10810;48.270;9.996;2022-08-19T05:38:13;19.02;;;8.52;;
21301;SDS011;10810;48.270;9.996;2022-08-19T05:40:42;20.10;;;9.02;;
21301;SDS011;10810;48.270;9.996;2022-08-19T05:43:13;16.65;;;8.00;;
21301;SDS011;10810;48.270;9.996;2022-08-19T05:45:56;17.70;;;8.23;;
21301;SDS011;10810;48.270;9.996;2022-08-19T05:48:24;16.17;;;7.57;;
21301;SDS011;10810;48.270;9.996;2022-08-19T05:51:04;19.58;;;8.75;;
21301;SDS011;10810;48.270;9.996;2022-08-19T05:53:33;17.55;;;7.78;;
21301;SDS011;10810;48.270;9.996;2022-08-19T05:56:03;17.60;;;7.80;;
21301;SDS011;10810;48.270;9.996;2022-08-19T05:58:30;19.25;;;8.85;;
21301;SDS011;10810;48.270;9.996;2022-08-19T06:00:58;16.50;;;7.95;;
21301;SDS011;10810;48.270;9.996;2022-08-19T06:03:29;16.98;;;7.95;;
21301;SDS011;10810;48.270;9.996;2022-08-19T06:05:59;19.75;;;8.05;;
21301;SDS011;10810;48.270;9.996;2022-08-19T06:08:31;16.90;;;7.95;;
21301;SDS011;10810;48.270;9.996;2022-08-19T06:11:13;13.45;;;7.10;;
21301;SDS011;10810;48.270;9.996;2022-08-19T06:13:43;15.45;;;7.47;;
21301;SDS011;10810;48.270;9.996;2022-08-19T06:16:12;15.57;;;7.78;;
21301;SDS011;10810;48.270;9.996;2022-08-19T06:18:47;16.08;;;7.20;;
21301;SDS011;10810;48.270;9.996;2022-08-19T06:21:19;15.68;;;7.63;;
21301;SDS011;10810;48.270;9.996;2022-08-19T06:23:48;16.33;;;8.07;;
21301;SDS011;10810;48.270;9.996;2022-08-19T06:26:16;16.10;;;7.93;;
21301;SDS011;10810;48.270;9.996;2022-08-19T06:28:44;19.27;;;7.88;;
21301;SDS011;10810;48.270;9.996;2022-08-19T06:31:13;16.67;;;8.05;;
21301;SDS011;10810;48.270;9.996;2022-08-19T06:33:44;18.98;;;8.85;;
21301;SDS011;10810;48.270;9.996;2022-08-19T06:36:44;17.75;;;8.00;;
21301;SDS011;10810;48.270;9.996;2022-08-19T06:39:17;19.45;;;8.90;;
21301;SDS011;10810;48.270;9.996;2022-08-19T06:41:48;17.13;;;8.15;;
21301;SDS011;10810;48.270;9.996;2022-08-19T06:44:25;19.30;;;8.25;;
21301;SDS011;10810;48.270;9.996;2022-08-19T06:47:03;21.95;;;8.20;;
21301;SDS011;10810;48.270;9.996;2022-08-19T06:49:32;19.35;;;8.65;;
21301;SDS011;10810;48.270;9.996;2022-08-19T06:52:04;21.27;;;9.02;;
21301;SDS011;10810;48.270;9.996;2022-08-19T06:54:34;21.10;;;8.82;;
21301;SDS011;10810;48.270;9.996;2022-08-19T06:57:15;20.65;;;8.73;;
21301;SDS011;10810;48.270;9.996;2022-08-19T06:59:46;19.95;;;8.90;;
21301;SDS011;10810;48.270;9.996;2022-08-19T07:02:15;21.52;;;8.35;;
21301;SDS011;10810;48.270;9.996;2022-08-19T07:04:51;19.48;;;8.55;;
21301;SDS011;10810;48.270;9.996;2022-08-19T07:10:11;21.20;;;9.57;;
21301;SDS011;10810;48.270;9.996;2022-08-19T07:12:42;21.23;;;8.95;;
21301;SDS011;10810;48.270;9.996;2022-08-19T07:15:09;22.42;;;9.13;;
21301;SDS011;10810;48.270;9.996;2022-08-19T07:17:37;18.30;;;8.73;;
21301;SDS011;10810;48.270;9.996;2022-08-19T07:20:05;20.95;;;9.10;;
21301;SDS011;10810;48.270;9.996;2022-08-19T07:22:33;19.60;;;8.55;;
21301;SDS011;10810;48.270;9.996;2022-08-19T07:25:02;18.10;;;8.45;;
21301;SDS011;10810;48.270;9.996;2022-08-19T07:27:30;20.40;;;9.07;;
21301;SDS011;10810;48.270;9.996;2022-08-19T07:29:57;21.42;;;9.18;;
21301;SDS011;10810;48.270;9.996;2022-08-19T07:32:30;21.55;;;9.00;;
21301;SDS011;10810;48.270;9.996;2022-08-19T07:35:00;21.67;;;9.75;;
21301;SDS011;10810;48.270;9.996;2022-08-19T07:37:30;23.08;;;10.02;;
21301;SDS011;10810;48.270;9.996;2022-08-19T07:40:10;21.23;;;9.25;;
21301;SDS011;10810;48.270;9.996;2022-08-19T07:42:41;21.55;;;9.25;;
21301;SDS011;10810;48.270;9.996;2022-08-19T07:45:09;18.60;;;8.13;;
21301;SDS011;10810;48.270;9.996;2022-08-19T07:47:36;24.45;;;9.85;;
21301;SDS011;10810;48.270;9.996;2022-08-19T07:50:08;21.95;;;9.63;;
21301;SDS011;10810;48.270;9.996;2022-08-19T07:52:37;23.02;;;9.13;;
21301;SDS011;10810;48.270;9.996;2022-08-19T07:55:07;24.08;;;10.00;;
21301;SDS011;10810;48.270;9.996;2022-08-19T07:57:36;22.52;;;9.27;;
21301;SDS011;10810;48.270;9.996;2022-08-19T08:00:04;24.35;;;9.50;;
21301;SDS011;10810;48.270;9.996;2022-08-19T08:02:40;22.50;;;9.68;;
21301;SDS011;10810;48.270;9.996;2022-08-19T08:05:12;24.92;;;9.63;;
21301;SDS011;10810;48.270;9.996;2022-08-19T08:07:59;21.25;;;9.27;;
21301;SDS011;10810;48.270;9.996;2022-08-19T08:10:44;21.08;;;9.10;;
21301;SDS011;10810;48.270;9.996;2022-08-19T08:13:11;22.70;;;9.73;;
21301;SDS011;10810;48.270;9.996;2022-08-19T08:15:39;23.20;;;9.00;;
21301;SDS011;10810;48.270;9.996;2022-08-19T08:18:06;21.45;;;9.18;;
21301;SDS011;10810;48.270;9.996;2022-08-19T08:20:33;20.35;;;9.60;;
21301;SDS011;10810;48.270;9.996;2022-08-19T08:23:11;21.42;;;9.00;;
21301;SDS011;10810;48.270;9.996;2022-08-19T08:25:56;19.27;;;8.93;;
21301;SDS011;10810;48.270;9.996;2022-08-19T08:28:31;21.45;;;9.20;;
21301;SDS011;10810;48.270;9.996;2022-08-19T08:31:11;20.50;;;8.73;;
21301;SDS011;10810;48.270;9.996;2022-08-19T08:33:40;20.02;;;8.23;;
21301;SDS011;10810;48.270;9.996;2022-08-19T08:36:09;20.60;;;8.80;;
21301;SDS011;10810;48.270;9.996;2022-08-19T08:44:37;20.00;;;8.70;;
21301;SDS011;10810;48.270;9.996;2022-08-19T08:47:12;19.60;;;8.32;;
21301;SDS011;10810;48.270;9.996;2022-08-19T08:50:04;20.10;;;8.35;;
21301;SDS011;10810;48.270;9.996;2022-08-19T08:52:36;18.05;;;8.18;;
21301;SDS011;10810;48.270;9.996;2022-08-19T08:55:12;17.50;;;8.50;;
21301;SDS011;10810;48.270;9.996;2022-08-19T08:58:14;19.13;;;8.63;;
21301;SDS011;10810;48.270;9.996;2022-08-19T09:01:03;19.05;;;8.55;;
21301;SDS011;10810;48.270;9.996;2022-08-19T09:03:32;18.52;;;7.75;;
21301;SDS011;10810;48.270;9.996;2022-08-19T09:06:44;17.38;;;8.00;;
21301;SDS011;10810;48.270;9.996;2022-08-19T09:09:37;19.58;;;8.57;;
21301;SDS011;10810;48.270;9.996;2022-08-19T09:12:09;17.75;;;7.72;;
21301;SDS011;10810;48.270;9.996;2022-08-19T09:17:49;15.73;;;7.60;;
21301;SDS011;10810;48.270;9.996;2022-08-19T09:20:18;17.08;;;7.30;;
21301;SDS011;10810;48.270;9.996;2022-08-19T09:22:47;16.90;;;7.53;;
21301;SDS011;10810;48.270;9.996;2022-08-19T09:25:17;17.58;;;8.05;;
21301;SDS011;10810;48.270;9.996;2022-08-19T09:27:47;16.90;;;7.32;;
21301;SDS011;10810;48.270;9.996;2022-08-19T09:30:16;15.48;;;7.40;;
21301;SDS011;10810;48.270;9.996;2022-08-19T09:32:48;18.02;;;7.70;;
21301;SDS011;10810;48.270;9.996;2022-08-19T09:35:17;16.25;;;7.75;;
21301;SDS011;10810;48.270;9.996;2022-08-19T09:37:50;17.77;;;7.53;;
21301;SDS011;10810;48.270;9.996;2022-08-19T09:40:36;14.88;;;7.07;;
21301;SDS011;10810;48.270;9.996;2022-08-19T09:43:31;15.52;;;7.25;;
21301;SDS011;10810;48.270;9.996;2022-08-19T09:49:47;15.13;;;7.25;;
21301;SDS011;10810;48.270;9.996;2022-08-19T09:52:16;16.65;;;7.00;;
21301;SDS011;10810;48.270;9.996;2022-08-19T09:54:57;15.82;;;7.15;;
21301;SDS011;10810;48.270;9.996;2022-08-19T09:57:24;16.73;;;6.93;;
21301;SDS011;10810;48.270;9.996;2022-08-19T09:59:51;14.45;;;6.50;;
21301;SDS011;10810;48.270;9.996;2022-08-19T10:02:34;15.48;;;6.80;;
21301;SDS011;10810;48.270;9.996;2022-08-19T10:05:03;13.45;;;6.15;;
21301;SDS011;10810;48.270;9.996;2022-08-19T10:07:47;14.13;;;6.65;;
21301;SDS011;10810;48.270;9.996;2022-08-19T10:10:15;14.45;;;6.53;;
21301;SDS011;10810;48.270;9.996;2022-08-19T10:12:51;13.48;;;6.55;;
21301;SDS011;10810;48.270;9.996;2022-08-19T10:15:40;11.60;;;6.00;;
21301;SDS011;10810;48.270;9.996;2022-08-19T10:18:13;15.10;;;6.35;;
21301;SDS011;10810;48.270;9.996;2022-08-19T10:23:33;13.50;;;5.95;;
21301;SDS011;10810;48.270;9.996;2022-08-19T10:26:01;13.70;;;6.13;;
21301;SDS011;10810;48.270;9.996;2022-08-19T10:28:33;10.50;;;5.45;;
21301;SDS011;10810;48.270;9.996;2022-08-19T10:31:05;11.38;;;5.47;;
21301;SDS011;10810;48.270;9.996;2022-08-19T10:33:34;10.15;;;5.32;;
21301;SDS011;10810;48.270;9.996;2022-08-19T10:36:05;13.15;;;5.40;;
21301;SDS011;10810;48.270;9.996;2022-08-19T10:38:34;12.05;;;5.70;;
21301;SDS011;10810;48.270;9.996;2022-08-19T10:41:09;10.10;;;5.60;;
21301;SDS011;10810;48.270;9.996;2022-08-19T10:43:39;11.02;;;5.60;;
21301;SDS011;10810;48.270;9.996;2022-08-19T10:46:11;11.15;;;5.60;;
21301;SDS011;10810;48.270;9.996;2022-08-19T10:48:40;10.48;;;5.68;;
21301;SDS011;10810;48.270;9.996;2022-08-19T10:51:09;14.18;;;6.47;;
21301;SDS011;10810;48.270;9.996;2022-08-19T10:53:54;11.30;;;5.45;;
21301;SDS011;10810;48.270;9.996;2022-08-19T10:56:32;10.77;;;5.25;;
21301;SDS011;10810;48.270;9.996;2022-08-19T10:59:18;12.05;;;5.75;;
21301;SDS011;10810;48.270;9.996;2022-08-19T11:01:47;11.13;;;4.95;;
21301;SDS011;10810;48.270;9.996;2022-08-19T11:04:15;10.55;;;5.38;;
21301;SDS011;10810;48.270;9.996;2022-08-19T11:06:45;11.13;;;5.10;;
21301;SDS011;10810;48.270;9.996;2022-08-19T11:09:14;11.80;;;5.60;;
21301;SDS011;10810;48.270;9.996;2022-08-19T11:11:47;10.77;;;5.22;;
21301;SDS011;10810;48.270;9.996;2022-08-19T11:14:36;11.30;;;5.25;;
21301;SDS011;10810;48.270;9.996;2022-08-19T11:17:19;10.10;;;5.07;;
21301;SDS011;10810;48.270;9.996;2022-08-19T11:19:48;9.90;;;5.10;;
21301;SDS011;10810;48.270;9.996;2022-08-19T11:22:17;9.80;;;5.03;;
21301;SDS011;10810;48.270;9.996;2022-08-19T11:24:45;9.75;;;4.65;;
21301;SDS011;10810;48.270;9.996;2022-08-19T11:27:12;9.57;;;4.53;;
21301;SDS011;10810;48.270;9.996;2022-08-19T11:29:39;8.93;;;4.20;;
21301;SDS011;10810;48.270;9.996;2022-08-19T11:32:07;9.25;;;4.80;;
21301;SDS011;10810;48.270;9.996;2022-08-19T11:34:38;11.00;;;5.30;;
21301;SDS011;10810;48.270;9.996;2022-08-19T11:37:07;10.98;;;5.20;;
21301;SDS011;10810;48.270;9.996;2022-08-19T11:39:36;11.07;;;5.03;;
21301;SDS011;10810;48.270;9.996;2022-08-19T11:42:04;10.13;;;5.03;;
21301;SDS011;10810;48.270;9.996;2022-08-19T11:44:47;10.02;;;4.53;;
21301;SDS011;10810;48.270;9.996;2022-08-19T11:47:16;9.30;;;4.88;;
21301;SDS011;10810;48.270;9.996;2022-08-19T11:49:47;10.48;;;5.00;;
21301;SDS011;10810;48.270;9.996;2022-08-19T11:52:16;9.25;;;4.90;;
21301;SDS011;10810;48.270;9.996;2022-08-19T11:54:45;10.73;;;4.75;;
21301;SDS011;10810;48.270;9.996;2022-08-19T11:57:14;10.07;;;4.80;;
21301;SDS011;10810;48.270;9.996;2022-08-19T12:00:02;8.48;;;4.53;;
21301;SDS011;10810;48.270;9.996;2022-08-19T12:02:48;10.93;;;4.75;;
21301;SDS011;10810;48.270;9.996;2022-08-19T12:05:30;10.60;;;5.15;;
21301;SDS011;10810;48.270;9.996;2022-08-19T12:08:20;9.38;;;4.38;;
21301;SDS011;10810;48.270;9.996;2022-08-19T12:16:55;9.98;;;4.75;;
21301;SDS011;10810;48.270;9.996;2022-08-19T12:19:35;9.10;;;4.68;;
21301;SDS011;10810;48.270;9.996;2022-08-19T12:22:47;11.70;;;5.38;;
21301;SDS011;10810;48.270;9.996;2022-08-19T12:25:48;9.05;;;4.60;;
21301;SDS011;10810;48.270;9.996;2022-08-19T12:28:19;9.70;;;4.93;;
21301;SDS011;10810;48.270;9.996;2022-08-19T12:30:48;10.90;;;4.90;;
21301;SDS011;10810;48.270;9.996;2022-08-19T12:33:20;10.63;;;5.43;;
21301;SDS011;10810;48.270;9.996;2022-08-19T12:35:55;12.00;;;5.70;;
21301;SDS011;10810;48.270;9.996;2022-08-19T12:38:30;11.35;;;5.65;;
21301;SDS011;10810;48.270;9.996;2022-08-19T12:41:03;12.40;;;5.80;;
21301;SDS011;10810;48.270;9.996;2022-08-19T12:43:33;12.63;;;5.90;;
21301;SDS011;10810;48.270;9.996;2022-08-19T12:46:06;12.00;;;5.90;;
21301;SDS011;10810;48.270;9.996;2022-08-19T12:48:35;14.93;;;6.55;;
21301;SDS011;10810;48.270;9.996;2022-08-19T12:51:07;13.65;;;6.63;;
21301;SDS011;10810;48.270;9.996;2022-08-19T12:53:48;11.13;;;6.00;;
21301;SDS011;10810;48.270;9.996;2022-08-19T12:56:16;12.63;;;5.88;;
21301;SDS011;10810;48.270;9.996;2022-08-19T12:59:22;12.00;;;6.15;;
21301;SDS011;10810;48.270;9.996;2022-08-19T13:01:42;11.63;;;5.95;;
21301;SDS011;10810;48.270;9.996;2022-08-19T13:04:13;11.80;;;5.90;;
21301;SDS011;10810;48.270;9.996;2022-08-19T13:06:41;13.70;;;5.88;;
21301;SDS011;10810;48.270;9.996;2022-08-19T13:09:09;11.55;;;5.70;;
21301;SDS011;10810;48.270;9.996;2022-08-19T13:11:39;13.15;;;6.32;;
21301;SDS011;10810;48.270;9.996;2022-08-19T13:14:08;12.90;;;6.40;;
21301;SDS011;10810;48.270;9.996;2022-08-19T13:16:38;12.90;;;6.28;;
21301;SDS011;10810;48.270;9.996;2022-08-19T13:19:11;13.98;;;6.28;;
21301;SDS011;10810;48.270;9.996;2022-08-19T13:21:45;11.93;;;5.97;;
21301;SDS011;10810;48.270;9.996;2022-08-19T13:24:16;11.75;;;5.90;;
21301;SDS011;10810;48.270;9.996;2022-08-19T13:26:43;11.90;;;5.68;;
21301;SDS011;10810;48.270;9.996;2022-08-19T13:29:18;15.27;;;7.00;;
21301;SDS011;10810;48.270;9.996;2022-08-19T13:32:03;14.35;;;6.78;;
21301;SDS011;10810;48.270;9.996;2022-08-19T13:34:49;13.82;;;6.55;;
21301;SDS011;10810;48.270;9.996;2022-08-19T13:37:16;14.73;;;6.55;;
21301;SDS011;10810;48.270;9.996;2022-08-19T13:40:04;14.30;;;6.55;;
21301;SDS011;10810;48.270;9.996;2022-08-19T13:42:32;12.25;;;5.88;;
21301;SDS011;10810;48.270;9.996;2022-08-19T13:45:01;15.13;;;6.10;;
21301;SDS011;10810;48.270;9.996;2022-08-19T13:47:34;12.00;;;5.65;;
21301;SDS011;10810;48.270;9.996;2022-08-19T13:50:07;13.13;;;6.10;;
21301;SDS011;10810;48.270;9.996;2022-08-19T13:52:43;14.00;;;6.22;;
21301;SDS011;10810;48.270;9.996;2022-08-19T13:55:12;10.93;;;5.65;;
21301;SDS011;10810;48.270;9.996;2022-08-19T13:57:42;12.95;;;6.22;;
21301;SDS011;10810;48.270;9.996;2022-08-19T14:00:28;11.02;;;5.93;;
21301;SDS011;10810;48.270;9.996;2022-08-19T14:03:07;10.90;;;5.47;;
21301;SDS011;10810;48.270;9.996;2022-08-19T14:08:45;9.80;;;4.93;;
21301;SDS011;10810;48.270;9.996;2022-08-19T14:11:12;9.38;;;4.90;;
21301;SDS011;10810;48.270;9.996;2022-08-19T14:13:51;10.50;;;4.88;;
21301;SDS011;10810;48.270;9.996;2022-08-19T14:16:40;8.55;;;4.85;;
21301;SDS011;10810;48.270;9.996;2022-08-19T14:19:15;8.20;;;4.30;;
21301;SDS011;10810;48.270;9.996;2022-08-19T14:21:46;7.03;;;3.55;;
21301;SDS011;10810;48.270;9.996;2022-08-19T14:24:14;5.57;;;3.65;;
21301;SDS011;10810;48.270;9.996;2022-08-19T14:26:42;7.68;;;3.88;;
21301;SDS011;10810;48.270;9.996;2022-08-19T14:29:33;8.18;;;3.45;;
21301;SDS011;10810;48.270;9.996;2022-08-19T14:32:08;6.43;;;3.53;;
21301;SDS011;10810;48.270;9.996;2022-08-19T14:34:35;6.28;;;3.42;;
21301;SDS011;10810;48.270;9.996;2022-08-19T14:37:02;6.65;;;3.20;;
21301;SDS011;10810;48.270;9.996;2022-08-19T14:39:37;6.10;;;3.22;;
21301;SDS011;10810;48.270;9.996;2022-08-19T14:42:06;5.53;;;3.47;;
21301;SDS011;10810;48.270;9.996;2022-08-19T14:44:35;6.43;;;3.40;;
21301;SDS011;10810;48.270;9.996;2022-08-19T14:47:03;5.72;;;3.17;;
21301;SDS011;10810;48.270;9.996;2022-08-19T14:49:33;7.25;;;3.05;;
21301;SDS011;10810;48.270;9.996;2022-08-19T14:52:03;5.22;;;2.80;;
21301;SDS011;10810;48.270;9.996;2022-08-19T14:54:31;5.45;;;2.92;;
21301;SDS011;10810;48.270;9.996;2022-08-19T14:57:02;5.47;;;3.08;;
21301;SDS011;10810;48.270;9.996;2022-08-19T14:59:43;5.07;;;3.00;;
21301;SDS011;10810;48.270;9.996;2022-08-19T15:02:25;8.02;;;3.67;;
21301;SDS011;10810;48.270;9.996;2022-08-19T15:04:52;5.20;;;2.95;;
21301;SDS011;10810;48.270;9.996;2022-08-19T15:07:21;5.45;;;3.00;;
21301;SDS011;10810;48.270;9.996;2022-08-19T15:09:55;4.45;;;2.80;;
21301;SDS011;10810;48.270;9.996;2022-08-19T15:12:22;4.60;;;2.80;;
21301;SDS011;10810;48.270;9.996;2022-08-19T15:14:50;6.15;;;3.20;;
21301;SDS011;10810;48.270;9.996;2022-08-19T15:17:20;4.25;;;2.67;;
21301;SDS011;10810;48.270;9.996;2022-08-19T15:19:47;6.05;;;2.90;;
21301;SDS011;10810;48.270;9.996;2022-08-19T15:22:17;5.03;;;3.00;;
21301;SDS011;10810;48.270;9.996;2022-08-19T15:24:44;5.53;;;2.65;;
21301;SDS011;10810;48.270;9.996;2022-08-19T15:27:14;5.85;;;3.08;;
21301;SDS011;10810;48.270;9.996;2022-08-19T15:29:41;6.03;;;3.30;;
21301;SDS011;10810;48.270;9.996;2022-08-19T15:32:10;5.88;;;3.35;;
21301;SDS011;10810;48.270;9.996;2022-08-19T15:34:37;5.40;;;3.15;;
21301;SDS011;10810;48.270;9.996;2022-08-19T15:37:04;5.40;;;3.15;;
21301;SDS011;10810;48.270;9.996;2022-08-19T15:39:31;6.72;;;3.28;;
21301;SDS011;10810;48.270;9.996;2022-08-19T15:41:59;5.57;;;3.17;;